createdAt,value
2022-10-27T00:00:34.092Z,2.60
2022-10-27T00:03:01.812Z,2.38
2022-10-27T00:05:29.238Z,2.60
2022-10-27T00:07:56.726Z,2.50
2022-10-27T00:10:23.947Z,3.00
2022-10-27T00:12:51.292Z,2.05
2022-10-27T00:15:18.802Z,1.92
2022-10-27T00:17:45.788Z,2.47
2022-10-27T00:20:13.159Z,2.20
2022-10-27T00:22:40.284Z,2.10
2022-10-27T00:25:07.820Z,2.20
2022-10-27T00:27:35.152Z,2.45
2022-10-27T00:30:02.762Z,2.15
2022-10-27T00:32:29.794Z,2.47
2022-10-27T00:34:56.957Z,2.75
2022-10-27T00:37:24.217Z,2.30
2022-10-27T00:39:51.442Z,2.80
2022-10-27T00:42:18.660Z,3.00
2022-10-27T00:44:46.774Z,2.45
2022-10-27T00:47:23.993Z,3.03
2022-10-27T00:50:08.278Z,2.00
2022-10-27T00:52:45.666Z,2.38
2022-10-27T00:55:39.540Z,2.72
2022-10-27T00:58:12.522Z,2.30
2022-10-27T01:00:40.583Z,2.00
2022-10-27T01:03:07.891Z,2.58
2022-10-27T01:05:34.930Z,2.20
2022-10-27T01:08:05.948Z,2.45
2022-10-27T01:10:33.247Z,2.60
2022-10-27T01:13:03.245Z,2.60
2022-10-27T01:15:56.096Z,2.75
2022-10-27T01:18:57.714Z,2.63
2022-10-27T01:21:40.111Z,2.15
2022-10-27T01:24:41.319Z,2.58
2022-10-27T01:27:17.773Z,2.45
2022-10-27T01:30:06.270Z,2.60
2022-10-27T01:33:13.065Z,2.25
2022-10-27T01:36:03.147Z,2.75
2022-10-27T01:38:32.661Z,2.92
2022-10-27T01:41:19.955Z,2.63
2022-10-27T01:43:47.702Z,3.25
2022-10-27T01:46:14.842Z,2.17
2022-10-27T01:48:42.410Z,2.20
2022-10-27T01:51:10.188Z,2.85
2022-10-27T01:53:41.616Z,3.15
2022-10-27T01:56:32.624Z,2.60
2022-10-27T01:59:05.867Z,3.08
2022-10-27T02:02:11.870Z,2.47
2022-10-27T02:05:13.380Z,2.40
2022-10-27T02:07:59.171Z,2.72
2022-10-27T02:10:28.935Z,2.50
2022-10-27T02:12:56.042Z,3.03
2022-10-27T02:15:25.942Z,2.88
2022-10-27T02:17:53.255Z,3.15
2022-10-27T02:20:22.895Z,2.80
2022-10-27T02:22:51.616Z,2.70
2022-10-27T02:25:23.878Z,2.90
2022-10-27T02:27:56.064Z,3.03
2022-10-27T02:30:23.176Z,2.47
2022-10-27T02:32:50.512Z,2.70
2022-10-27T02:35:18.172Z,2.92
2022-10-27T02:37:46.627Z,3.00
2022-10-27T02:40:13.632Z,3.03
2022-10-27T02:42:40.968Z,3.33
2022-10-27T02:45:08.530Z,3.17
2022-10-27T02:47:35.589Z,3.17
2022-10-27T02:50:03.088Z,2.80
2022-10-27T02:52:30.473Z,2.97
2022-10-27T02:54:57.750Z,2.95
2022-10-27T02:57:25.269Z,2.95
2022-10-27T02:59:53.763Z,2.47
2022-10-27T03:02:23.536Z,2.92
2022-10-27T03:04:51.670Z,2.78
2022-10-27T03:07:19.057Z,3.50
2022-10-27T03:09:46.168Z,2.70
2022-10-27T03:12:14.368Z,2.78
2022-10-27T03:14:41.493Z,3.35
2022-10-27T03:17:08.649Z,3.33
2022-10-27T03:19:35.917Z,3.42
2022-10-27T03:22:03.101Z,3.13
2022-10-27T03:24:32.965Z,3.00
2022-10-27T03:27:00.789Z,3.00
2022-10-27T03:29:28.030Z,3.25
2022-10-27T03:31:55.134Z,3.08
2022-10-27T03:34:22.484Z,3.10
2022-10-27T03:36:49.744Z,3.47
2022-10-27T03:39:16.797Z,3.00
2022-10-27T03:41:44.257Z,3.75
2022-10-27T03:44:11.487Z,2.95
2022-10-27T03:46:38.634Z,3.35
2022-10-27T03:49:05.850Z,3.33
2022-10-27T03:51:32.897Z,3.30
2022-10-27T03:54:01.982Z,3.25
2022-10-27T03:56:29.853Z,3.28
2022-10-27T03:58:56.896Z,3.25
2022-10-27T04:01:24.099Z,3.47
2022-10-27T04:03:51.822Z,3.53
2022-10-27T04:06:18.810Z,3.00
2022-10-27T04:08:46.062Z,3.17
2022-10-27T04:11:13.372Z,2.78
2022-10-27T04:13:41.188Z,2.83
2022-10-27T04:16:08.644Z,3.10
2022-10-27T04:18:36.149Z,3.08
2022-10-27T04:21:04.241Z,2.40
2022-10-27T04:23:31.976Z,2.30
2022-10-27T04:25:59.669Z,2.28
2022-10-27T04:28:26.689Z,2.28
2022-10-27T04:30:54.009Z,2.10
2022-10-27T04:33:25.003Z,2.00
2022-10-27T04:35:55.170Z,2.25
2022-10-27T04:38:22.452Z,2.08
2022-10-27T04:40:49.610Z,2.00
2022-10-27T04:43:16.804Z,2.30
2022-10-27T04:45:44.324Z,2.10
2022-10-27T04:48:11.516Z,2.00
2022-10-27T04:50:38.577Z,1.95
2022-10-27T04:53:06.222Z,2.20
2022-10-27T04:55:33.640Z,2.88
2022-10-27T04:58:04.255Z,2.20
2022-10-27T05:00:35.778Z,2.40
2022-10-27T05:03:03.044Z,2.33
2022-10-27T05:05:30.788Z,2.03
2022-10-27T05:08:01.951Z,2.28
2022-10-27T05:10:32.710Z,2.38
2022-10-27T05:12:59.972Z,2.83
2022-10-27T05:15:27.836Z,2.53
2022-10-27T05:17:55.168Z,2.20
2022-10-27T05:20:22.888Z,2.10
2022-10-27T05:22:50.144Z,2.47
2022-10-27T05:25:17.408Z,2.60
2022-10-27T05:27:44.719Z,2.10
2022-10-27T05:30:13.293Z,2.17
2022-10-27T05:32:43.404Z,2.00
2022-10-27T05:35:13.754Z,2.13
2022-10-27T05:37:45.344Z,1.80
2022-10-27T05:40:12.658Z,1.77
2022-10-27T05:42:41.336Z,2.30
2022-10-27T05:45:09.116Z,2.13
2022-10-27T05:47:36.331Z,2.35
2022-10-27T05:50:03.491Z,2.00
2022-10-27T05:52:30.784Z,1.80
2022-10-27T05:54:57.988Z,2.38
2022-10-27T05:57:25.202Z,1.90
2022-10-27T05:59:52.342Z,1.80
2022-10-27T06:02:19.621Z,1.80
2022-10-27T06:04:46.901Z,1.92
2022-10-27T06:07:14.597Z,1.98
2022-10-27T06:09:42.120Z,1.90
2022-10-27T06:12:09.575Z,1.77
2022-10-27T06:14:36.657Z,1.60
2022-10-27T06:17:03.827Z,1.70
2022-10-27T06:19:31.042Z,1.70
2022-10-27T06:21:58.741Z,1.63
2022-10-27T06:24:26.247Z,1.70
2022-10-27T06:26:56.169Z,1.33
2022-10-27T06:29:24.389Z,1.60
2022-10-27T06:31:51.572Z,1.80
2022-10-27T06:34:22.271Z,1.58
2022-10-27T06:36:49.483Z,2.22
2022-10-27T06:39:16.624Z,1.60
2022-10-27T06:41:43.833Z,1.42
2022-10-27T06:44:18.947Z,1.95
2022-10-27T06:46:46.265Z,1.60
2022-10-27T06:49:15.484Z,1.67
2022-10-27T06:51:45.460Z,1.77
2022-10-27T06:54:13.112Z,2.25
2022-10-27T06:56:40.475Z,1.52
2022-10-27T06:59:07.614Z,1.60
2022-10-27T07:01:34.998Z,1.92
2022-10-27T07:04:02.540Z,2.33
2022-10-27T07:06:30.262Z,1.75
2022-10-27T07:08:58.125Z,2.17
2022-10-27T07:11:28.802Z,1.80
2022-10-27T07:13:56.555Z,1.70
2022-10-27T07:16:23.830Z,1.63
2022-10-27T07:18:51.084Z,1.90
2022-10-27T07:21:18.482Z,1.45
2022-10-27T07:23:45.570Z,1.60
2022-10-27T07:26:12.765Z,1.88
2022-10-27T07:28:39.919Z,1.70
2022-10-27T07:31:07.111Z,1.70
2022-10-27T07:33:34.269Z,1.80
2022-10-27T07:36:01.909Z,1.45
2022-10-27T07:38:29.097Z,1.63
2022-10-27T07:40:59.313Z,1.92
2022-10-27T07:45:55.413Z,1.60
2022-10-27T07:48:22.521Z,1.90
2022-10-27T07:53:18.694Z,1.30
2022-10-27T07:55:45.737Z,1.50
2022-10-27T07:58:14.658Z,1.60
2022-10-27T08:00:43.331Z,1.50
2022-10-27T08:03:20.936Z,1.52
2022-10-27T08:05:48.676Z,2.00
2022-10-27T08:08:16.301Z,5.57
2022-10-27T08:10:46.184Z,1.63
2022-10-27T08:13:13.749Z,1.83
2022-10-27T08:15:41.592Z,1.85
2022-10-27T08:18:09.608Z,1.80
2022-10-27T08:20:46.978Z,1.60
2022-10-27T08:23:18.394Z,2.00
2022-10-27T08:25:45.607Z,1.80
2022-10-27T08:28:15.998Z,2.03
2022-10-27T08:30:50.705Z,1.90
2022-10-27T08:33:20.530Z,2.17
2022-10-27T08:35:47.845Z,1.60
2022-10-27T08:38:16.471Z,2.10
2022-10-27T08:41:02.648Z,1.67
2022-10-27T08:43:49.066Z,1.80
2022-10-27T08:46:22.400Z,2.15
2022-10-27T08:48:50.118Z,1.98
2022-10-27T08:51:20.099Z,2.08
2022-10-27T08:53:48.822Z,1.90
2022-10-27T08:56:16.267Z,1.80
2022-10-27T08:58:47.282Z,1.95
2022-10-27T09:01:32.807Z,1.70
2022-10-27T09:04:27.120Z,2.17
2022-10-27T09:07:11.148Z,2.40
2022-10-27T09:09:45.343Z,2.63
2022-10-27T09:12:44.109Z,1.92
2022-10-27T09:15:17.053Z,1.80
2022-10-27T09:17:55.740Z,2.00
2022-10-27T09:20:59.442Z,2.10
2022-10-27T09:23:33.665Z,2.50
2022-10-27T09:26:00.885Z,1.98
2022-10-27T09:28:41.057Z,2.22
2022-10-27T09:33:39.430Z,2.40
2022-10-27T09:36:14.156Z,3.03
2022-10-27T09:38:41.557Z,2.00
2022-10-27T09:41:08.766Z,2.00
2022-10-27T09:43:37.522Z,2.40
2022-10-27T09:46:07.287Z,3.10
2022-10-27T09:48:34.650Z,3.05
2022-10-27T09:51:08.046Z,2.08
2022-10-27T09:53:49.272Z,2.30
2022-10-27T09:56:37.612Z,2.22
2022-10-27T09:59:05.534Z,2.33
2022-10-27T10:01:43.245Z,2.10
2022-10-27T10:04:35.201Z,2.13
2022-10-27T10:07:16.735Z,2.17
2022-10-27T10:09:44.433Z,2.40
2022-10-27T10:12:26.125Z,2.25
2022-10-27T10:15:11.764Z,1.80
2022-10-27T10:17:40.794Z,2.08
2022-10-27T10:20:09.487Z,1.85
2022-10-27T10:22:40.247Z,1.65
2022-10-27T10:25:21.451Z,2.30
2022-10-27T10:27:55.651Z,2.08
2022-10-27T10:30:23.326Z,2.17
2022-10-27T10:32:52.669Z,2.25
2022-10-27T10:35:58.798Z,2.13
2022-10-27T10:38:38.214Z,2.03
2022-10-27T10:41:13.118Z,2.05
2022-10-27T10:43:45.887Z,1.77
2022-10-27T10:46:32.977Z,2.00
2022-10-27T10:49:01.553Z,2.03
2022-10-27T10:51:36.645Z,2.03
2022-10-27T10:54:23.699Z,1.83
2022-10-27T10:57:05.427Z,1.52
2022-10-27T10:59:39.409Z,2.55
2022-10-27T11:02:31.084Z,2.15
2022-10-27T11:05:12.838Z,1.90
2022-10-27T11:07:41.020Z,1.95
2022-10-27T11:10:40.034Z,1.60
2022-10-27T11:13:41.967Z,2.55
2022-10-27T11:16:32.858Z,1.50
2022-10-27T11:19:16.507Z,1.90
2022-10-27T11:21:53.167Z,1.83
2022-10-27T11:24:37.122Z,1.70
2022-10-27T11:27:11.390Z,2.10
2022-10-27T11:32:45.176Z,1.60
2022-10-27T11:35:52.380Z,1.80
2022-10-27T11:41:32.212Z,1.55
2022-10-27T11:44:26.604Z,1.75
2022-10-27T11:47:00.052Z,1.58
2022-10-27T11:49:49.302Z,1.42
2022-10-27T11:52:44.360Z,1.88
2022-10-27T11:58:18.027Z,1.67
2022-10-27T12:01:07.080Z,1.63
2022-10-27T12:03:57.295Z,1.60
2022-10-27T12:06:34.534Z,1.70
2022-10-27T12:09:05.081Z,2.10
2022-10-27T12:12:11.746Z,1.25
2022-10-27T12:14:52.625Z,1.70
2022-10-27T12:17:56.310Z,1.58
2022-10-27T12:20:48.236Z,1.80
2022-10-27T12:23:22.954Z,1.80
2022-10-27T12:25:55.921Z,1.65
2022-10-27T12:28:23.724Z,2.25
2022-10-27T12:30:52.720Z,2.20
2022-10-27T12:33:35.865Z,2.10
2022-10-27T12:36:05.982Z,1.85
2022-10-27T12:41:15.673Z,1.48
2022-10-27T12:44:08.184Z,1.48
2022-10-27T12:46:48.693Z,1.80
2022-10-27T12:49:49.981Z,1.40
2022-10-27T12:52:25.280Z,1.63
2022-10-27T12:55:20.111Z,1.90
2022-10-27T12:57:52.548Z,1.95
2022-10-27T13:00:21.711Z,1.70
2022-10-27T13:02:52.062Z,1.70
2022-10-27T13:05:19.632Z,1.92
2022-10-27T13:07:57.375Z,1.63
2022-10-27T13:10:43.833Z,1.83
2022-10-27T13:13:40.538Z,1.50
2022-10-27T13:16:13.269Z,1.45
2022-10-27T13:19:02.947Z,1.42
2022-10-27T13:21:39.896Z,1.50
2022-10-27T13:27:37.758Z,2.53
2022-10-27T13:30:07.377Z,1.30
2022-10-27T13:32:53.884Z,1.70
2022-10-27T13:35:30.809Z,1.70
2022-10-27T13:38:22.789Z,1.40
2022-10-27T13:40:51.370Z,2.15
2022-10-27T13:43:32.637Z,1.85
2022-10-27T13:46:00.342Z,1.48
2022-10-27T13:48:27.815Z,2.08
2022-10-27T13:50:57.057Z,1.73
2022-10-27T13:53:26.407Z,1.40
2022-10-27T13:55:57.939Z,1.60
2022-10-27T13:58:34.280Z,1.58
2022-10-27T14:01:07.701Z,1.95
2022-10-27T14:03:44.122Z,1.80
2022-10-27T14:06:17.352Z,1.48
2022-10-27T14:08:49.929Z,1.70
2022-10-27T14:11:29.595Z,1.30
2022-10-27T14:14:06.704Z,1.40
2022-10-27T14:16:42.156Z,2.00
2022-10-27T14:19:33.432Z,1.52
2022-10-27T14:22:07.949Z,1.25
2022-10-27T14:24:52.717Z,1.50
2022-10-27T14:27:34.508Z,1.95
2022-10-27T14:30:32.832Z,1.80
2022-10-27T14:33:30.938Z,1.60
2022-10-27T14:36:27.306Z,1.73
2022-10-27T14:39:10.818Z,1.58
2022-10-27T14:41:53.866Z,2.03
2022-10-27T14:44:29.039Z,2.10
2022-10-27T14:47:01.844Z,1.70
2022-10-27T14:49:33.798Z,2.45
2022-10-27T14:52:05.211Z,1.75
2022-10-27T14:54:36.157Z,3.10
2022-10-27T14:57:29.431Z,1.75
2022-10-27T14:59:56.990Z,2.05
2022-10-27T15:02:34.189Z,2.08
2022-10-27T15:05:26.631Z,1.92
2022-10-27T15:08:11.932Z,2.17
2022-10-27T15:13:29.943Z,2.00
2022-10-27T15:16:07.876Z,1.77
2022-10-27T15:18:42.758Z,2.33
2022-10-27T15:21:22.855Z,1.88
2022-10-27T15:24:05.932Z,2.28
2022-10-27T15:26:40.487Z,2.25
2022-10-27T15:29:18.996Z,2.05
2022-10-27T15:31:58.792Z,2.45
2022-10-27T15:34:34.925Z,3.00
2022-10-27T15:37:22.226Z,2.65
2022-10-27T15:40:04.350Z,2.35
2022-10-27T15:42:43.137Z,3.00
2022-10-27T15:45:47.129Z,3.65
2022-10-27T15:48:43.335Z,2.35
2022-10-27T15:51:40.813Z,2.53
2022-10-27T15:54:45.267Z,2.38
2022-10-27T15:57:41.356Z,2.13
2022-10-27T16:00:50.667Z,2.67
2022-10-27T16:03:42.821Z,2.90
2022-10-27T16:06:23.819Z,3.00
2022-10-27T16:08:54.673Z,3.08
2022-10-27T16:11:34.312Z,3.25
2022-10-27T16:14:13.430Z,2.80
2022-10-27T16:16:50.208Z,3.25
2022-10-27T16:19:21.752Z,3.08
2022-10-27T16:21:55.585Z,2.88
2022-10-27T16:24:43.235Z,3.40
2022-10-27T16:27:23.474Z,2.20
2022-10-27T16:30:01.125Z,3.03
2022-10-27T16:32:47.753Z,2.15
2022-10-27T16:35:23.574Z,2.33
2022-10-27T16:38:12.145Z,2.20
2022-10-27T16:41:10.132Z,2.20
2022-10-27T16:44:13.673Z,2.63
2022-10-27T16:46:42.248Z,2.58
2022-10-27T16:49:42.493Z,2.53
2022-10-27T16:55:08.173Z,2.22
2022-10-27T16:57:48.862Z,2.35
2022-10-27T17:00:17.627Z,2.20
2022-10-27T17:02:49.323Z,3.05
2022-10-27T17:13:25.003Z,2.78
2022-10-27T17:16:52.426Z,2.45
2022-10-27T17:26:43.401Z,2.05
2022-10-27T17:29:13.803Z,2.58
2022-10-27T17:37:08.439Z,2.20
2022-10-27T17:41:12.657Z,2.65
2022-10-27T17:44:08.433Z,2.30
2022-10-27T17:46:43.625Z,2.60
2022-10-27T17:49:12.685Z,2.47
2022-10-27T17:51:40.385Z,2.97
2022-10-27T17:54:23.188Z,2.83
2022-10-27T17:56:50.649Z,2.80
2022-10-27T17:59:20.563Z,2.30
2022-10-27T18:01:50.180Z,2.80
2022-10-27T18:04:24.427Z,2.65
2022-10-27T18:06:55.275Z,2.88
2022-10-27T18:09:23.026Z,2.45
2022-10-27T18:11:50.706Z,2.40
2022-10-27T18:14:25.942Z,2.92
2022-10-27T18:16:57.537Z,2.67
2022-10-27T18:19:28.272Z,2.70
2022-10-27T18:21:59.699Z,2.70
2022-10-27T18:24:28.901Z,2.50
2022-10-27T18:27:01.442Z,3.15
2022-10-27T18:29:36.077Z,3.33
2022-10-27T18:32:04.345Z,3.38
2022-10-27T18:34:41.779Z,4.10
2022-10-27T18:37:21.939Z,3.45
2022-10-27T18:40:16.432Z,3.58
2022-10-27T18:43:05.715Z,3.38
2022-10-27T18:45:44.893Z,3.30
2022-10-27T18:48:12.809Z,4.13
2022-10-27T18:50:42.764Z,3.22
2022-10-27T18:53:20.113Z,3.30
2022-10-27T18:55:51.761Z,3.30
2022-10-27T18:58:23.106Z,3.40
2022-10-27T19:00:51.025Z,3.53
2022-10-27T19:03:18.319Z,4.40
2022-10-27T19:05:45.995Z,3.88
2022-10-27T19:08:16.989Z,4.03
2022-10-27T19:10:44.377Z,4.18
2022-10-27T19:13:12.009Z,4.00
2022-10-27T19:15:39.252Z,3.97
2022-10-27T19:18:06.597Z,3.53
2022-10-27T19:20:34.479Z,4.93
2022-10-27T19:23:05.231Z,4.35
2022-10-27T19:25:33.098Z,4.47
2022-10-27T19:28:03.799Z,3.42
2022-10-27T19:30:34.068Z,4.38
2022-10-27T19:33:04.607Z,4.28
2022-10-27T19:35:35.292Z,3.67
2022-10-27T19:38:07.472Z,4.10
2022-10-27T19:40:36.771Z,4.10
2022-10-27T19:43:09.678Z,3.77
2022-10-27T19:45:46.507Z,3.67
2022-10-27T19:48:14.091Z,4.05
2022-10-27T19:50:41.859Z,3.60
2022-10-27T19:53:12.675Z,4.07
2022-10-27T19:55:40.492Z,3.78
2022-10-27T19:58:10.600Z,3.97
2022-10-27T20:00:39.000Z,3.85
2022-10-27T20:03:10.666Z,3.85
2022-10-27T20:05:55.977Z,3.80
2022-10-27T20:08:23.392Z,4.18
2022-10-27T20:10:52.528Z,5.05
2022-10-27T20:13:20.169Z,4.20
2022-10-27T20:15:51.529Z,4.55
2022-10-27T20:18:25.739Z,4.18
2022-10-27T20:20:56.652Z,4.45
2022-10-27T20:23:24.490Z,4.20
2022-10-27T20:26:28.407Z,4.22
2022-10-27T20:28:51.817Z,4.25
2022-10-27T20:31:19.407Z,4.22
2022-10-27T20:33:47.618Z,3.90
2022-10-27T20:36:21.842Z,4.20
2022-10-27T20:38:49.168Z,4.43
2022-10-27T20:41:18.321Z,3.85
2022-10-27T20:43:45.844Z,5.03
2022-10-27T20:46:16.593Z,4.60
2022-10-27T20:48:45.120Z,4.22
2022-10-27T20:51:13.020Z,4.38
2022-10-27T20:53:40.450Z,4.57
2022-10-27T20:56:09.641Z,3.97
2022-10-27T20:58:41.316Z,4.47
2022-10-27T21:01:36.061Z,4.00
2022-10-27T21:04:29.902Z,4.28
2022-10-27T21:06:57.426Z,4.10
2022-10-27T21:09:24.707Z,4.90
2022-10-27T21:11:52.181Z,4.25
2022-10-27T21:14:22.751Z,4.72
2022-10-27T21:16:51.930Z,4.90
2022-10-27T21:19:19.873Z,4.82
2022-10-27T21:21:47.005Z,4.85
2022-10-27T21:24:17.010Z,4.60
2022-10-27T21:26:45.964Z,5.05
2022-10-27T21:29:13.939Z,5.07
2022-10-27T21:31:46.902Z,4.45
2022-10-27T21:34:16.224Z,4.72
2022-10-27T21:36:54.507Z,4.90
2022-10-27T21:39:21.980Z,4.25
2022-10-27T21:41:49.394Z,4.57
2022-10-27T21:44:17.205Z,4.45
2022-10-27T21:46:44.612Z,4.82
2022-10-27T21:49:11.974Z,4.75
2022-10-27T21:51:43.328Z,4.13
2022-10-27T21:54:10.541Z,5.65
2022-10-27T21:56:37.655Z,4.75
2022-10-27T21:59:05.925Z,4.25
2022-10-27T22:01:33.554Z,4.78
2022-10-27T22:04:03.138Z,4.72
2022-10-27T22:06:32.615Z,4.07
2022-10-27T22:09:01.013Z,4.55
2022-10-27T22:11:33.413Z,4.60
2022-10-27T22:14:01.288Z,4.40
2022-10-27T22:16:29.354Z,5.43
2022-10-27T22:18:58.312Z,5.30
2022-10-27T22:21:28.172Z,4.45
2022-10-27T22:23:59.212Z,4.60
2022-10-27T22:26:29.841Z,5.78
2022-10-27T22:28:58.431Z,5.40
2022-10-27T22:31:27.821Z,5.22
2022-10-27T22:33:55.387Z,5.10
2022-10-27T22:36:28.596Z,5.18
2022-10-27T22:38:57.511Z,5.30
2022-10-27T22:41:26.359Z,5.18
2022-10-27T22:44:00.127Z,4.70
2022-10-27T22:46:41.460Z,4.30
2022-10-27T22:49:11.699Z,4.28
2022-10-27T22:54:14.175Z,4.65
2022-10-27T22:56:42.965Z,4.93
2022-10-27T22:59:11.419Z,4.28
2022-10-27T23:01:41.086Z,5.85
2022-10-27T23:04:13.455Z,4.80
2022-10-27T23:06:41.385Z,4.40
2022-10-27T23:09:14.251Z,4.30
2022-10-27T23:11:42.096Z,4.50
2022-10-27T23:14:11.873Z,5.50
2022-10-27T23:16:39.951Z,4.30
2022-10-27T23:19:07.832Z,4.55
2022-10-27T23:21:36.232Z,4.82
2022-10-27T23:24:08.431Z,4.25
2022-10-27T23:26:37.957Z,4.53
2022-10-27T23:29:11.162Z,4.55
2022-10-27T23:31:39.043Z,4.25
2022-10-27T23:34:07.353Z,4.10
2022-10-27T23:36:40.490Z,4.22
2022-10-27T23:39:08.359Z,4.38
2022-10-27T23:41:42.282Z,4.07
2022-10-27T23:44:12.829Z,5.45
2022-10-27T23:46:41.895Z,4.60
2022-10-27T23:49:13.205Z,4.47
2022-10-27T23:51:42.091Z,4.55
2022-10-27T23:54:09.867Z,4.82
2022-10-27T23:56:38.189Z,4.75
2022-10-27T23:59:09.632Z,4.57
